CheckWX is a tool to help pilots better visualize weather data.  It is not intended as a substitute for an official pre-flight weather briefing.

09:16:45 UTC

EBDT METAR
Schaffen Airport
Diest, Belgium
Current

22 mins ago

EBDT 250855Z AUTO VRB02KT 9999 NCD 25/15 Q1020 BLU
Observed
Aug-25 @ 08:55 UTC
Wind
  • Variable at 2 KTS
Visibility
10,000+ meters
Flight Rules
VFR
Cloud Levels
  • Clear skies
Temperature
25°C / 77°F
Dewpoint
15°C / 59°F
Humidity
54%
Altimeter
30.12" Hg
Pressure
1019.92 hPa
Previous

52 mins ago

EBDT 250825Z AUTO VRB02KT 9999 NCD 23/14 Q1020 BLU
Observed
Aug-25 @ 08:25 UTC
Wind
  • Variable at 2 KTS
Visibility
10,000+ meters
Flight Rules
VFR
Cloud Levels
  • Clear skies
Temperature
23°C / 73°F
Dewpoint
14°C / 57°F
Humidity
57%
Altimeter
30.12" Hg
Pressure
1019.92 hPa
Previous

1 hour ago

EBDT 250755Z AUTO VRB02KT 9999 NCD 22/14 Q1019 BLU
Observed
Aug-25 @ 07:55 UTC
Wind
  • Variable at 2 KTS
Visibility
10,000+ meters
Flight Rules
VFR
Cloud Levels
  • Clear skies
Temperature
22°C / 72°F
Dewpoint
14°C / 57°F
Humidity
61%
Altimeter
30.09" Hg
Pressure
1018.92 hPa